createdAt,value
2023-04-16T00:02:02.061Z,101457.09
2023-04-16T00:04:29.419Z,101453.72
2023-04-16T00:06:56.393Z,101449.44
2023-04-16T00:09:23.306Z,101455.50
2023-04-16T00:11:50.210Z,101452.94
2023-04-16T00:14:17.122Z,101452.03
2023-04-16T00:16:44.092Z,101450.31
2023-04-16T00:19:11.259Z,101452.91
2023-04-16T00:21:38.338Z,101462.41
2023-04-16T00:24:05.287Z,101459.75
2023-04-16T00:26:32.188Z,101458.03
2023-04-16T00:28:59.150Z,101458.78
2023-04-16T00:31:31.045Z,101453.47
2023-04-16T00:33:58.770Z,101457.78
2023-04-16T00:36:27.374Z,101453.50
2023-04-16T00:38:55.457Z,101455.28
2023-04-16T00:41:23.129Z,101448.41
2023-04-16T00:43:50.799Z,101445.84
2023-04-16T00:46:21.263Z,101452.88
2023-04-16T00:48:49.385Z,101454.69
2023-04-16T00:51:16.940Z,101452.13
2023-04-16T00:53:45.986Z,101454.69
2023-04-16T00:56:13.727Z,101452.88
2023-04-16T00:58:40.831Z,101456.28
2023-04-16T01:01:07.868Z,101453.66
2023-04-16T01:03:46.423Z,101444.91
2023-04-16T01:06:14.823Z,101451.13
2023-04-16T01:08:41.744Z,101455.50
2023-04-16T01:11:09.708Z,101451.19
2023-04-16T01:13:39.438Z,101461.59
2023-04-16T01:16:12.729Z,101458.06
2023-04-16T01:18:39.805Z,101469.25
2023-04-16T01:21:06.878Z,101466.53
2023-04-16T01:23:33.806Z,101467.28
2023-04-16T01:26:00.853Z,101476.78
2023-04-16T01:28:27.802Z,101470.66
2023-04-16T01:30:54.866Z,101468.84
2023-04-16T01:33:32.118Z,101487.81
2023-04-16T01:35:59.149Z,101495.56
2023-04-16T01:38:26.168Z,101493.81
2023-04-16T01:40:59.618Z,101489.50
2023-04-16T01:43:26.601Z,101493.84
2023-04-16T01:46:18.893Z,101492.97
2023-04-16T01:48:46.214Z,101483.50
2023-04-16T01:51:13.346Z,101492.22
2023-04-16T01:53:40.480Z,101487.06
2023-04-16T01:56:07.484Z,101488.88
2023-04-16T01:58:35.868Z,101488.97
2023-04-16T02:01:02.882Z,101484.63
2023-04-16T02:03:31.356Z,101482.81
2023-04-16T02:05:58.531Z,101485.41
2023-04-16T02:08:25.556Z,101483.72
2023-04-16T02:10:52.562Z,101477.66
2023-04-16T02:13:19.551Z,101486.34
2023-04-16T02:15:51.349Z,101490.66
2023-04-16T02:18:25.921Z,101482.88
2023-04-16T02:20:53.010Z,101488.16
2023-04-16T02:23:20.021Z,101487.34
2023-04-16T02:25:48.169Z,101489.22
2023-04-16T02:28:17.110Z,101488.44
2023-04-16T02:30:46.014Z,101496.38
2023-04-16T02:33:15.253Z,101488.63
2023-04-16T02:35:52.489Z,101498.16
2023-04-16T02:38:19.895Z,101499.84
2023-04-16T02:40:46.777Z,101506.72
2023-04-16T02:43:13.732Z,101502.22
2023-04-16T02:45:40.792Z,101503.00
2023-04-16T02:48:09.079Z,101504.59
2023-04-16T02:50:36.173Z,101510.66
2023-04-16T02:53:04.290Z,101502.00
2023-04-16T02:55:31.241Z,101502.94
2023-04-16T02:57:58.200Z,101501.22
2023-04-16T03:00:25.619Z,101504.69
2023-04-16T03:02:52.708Z,101502.09
2023-04-16T03:05:19.874Z,101502.91
2023-04-16T03:07:46.958Z,101507.16
2023-04-16T03:10:15.406Z,101506.22
2023-04-16T03:12:42.319Z,101505.41
2023-04-16T03:15:09.750Z,101502.03
2023-04-16T03:17:36.976Z,101503.03
2023-04-16T03:20:05.019Z,101499.69
2023-04-16T03:22:31.928Z,101508.53
2023-04-16T03:24:58.814Z,101510.34
2023-04-16T03:27:25.762Z,101511.28
2023-04-16T03:29:53.316Z,101515.75
2023-04-16T03:32:20.232Z,101521.03
2023-04-16T03:34:47.196Z,101516.69
2023-04-16T03:37:14.188Z,101514.09
2023-04-16T03:39:41.513Z,101515.75
2023-04-16T03:42:10.526Z,101523.56
2023-04-16T03:44:37.514Z,101521.78
2023-04-16T03:47:04.419Z,101520.88
2023-04-16T03:49:31.334Z,101528.63
2023-04-16T03:51:59.209Z,101529.44
2023-04-16T03:54:26.844Z,101526.66
2023-04-16T03:57:05.666Z,101532.75
2023-04-16T03:59:33.588Z,101536.09
2023-04-16T04:02:00.883Z,101539.50
2023-04-16T04:04:28.074Z,101549.03
2023-04-16T04:06:55.047Z,101547.28
2023-04-16T04:09:23.174Z,101549.81
2023-04-16T04:11:50.829Z,101545.31
2023-04-16T04:14:17.979Z,101560.94
2023-04-16T04:16:45.056Z,101553.94
2023-04-16T04:19:12.489Z,101562.56
2023-04-16T04:21:39.600Z,101561.63
2023-04-16T04:24:06.684Z,101564.97
2023-04-16T04:26:34.437Z,101568.38
2023-04-16T04:29:01.351Z,101569.13
2023-04-16T04:31:28.378Z,101560.50
2023-04-16T04:33:56.164Z,101569.25
2023-04-16T04:36:23.283Z,101565.81
2023-04-16T04:38:50.461Z,101563.06
2023-04-16T04:41:17.583Z,101562.34
2023-04-16T04:43:44.506Z,101561.50
2023-04-16T04:46:12.347Z,101564.13
2023-04-16T04:48:40.956Z,101572.00
2023-04-16T04:51:07.960Z,101571.13
2023-04-16T04:53:35.099Z,101572.09
2023-04-16T04:56:11.665Z,101572.22
2023-04-16T04:58:40.617Z,101566.97
2023-04-16T05:01:07.548Z,101576.63
2023-04-16T05:03:34.659Z,101580.16
2023-04-16T05:06:01.630Z,101578.44
2023-04-16T05:08:28.526Z,101578.31
2023-04-16T05:10:55.451Z,101584.53
2023-04-16T05:13:22.389Z,101586.31
2023-04-16T05:15:49.263Z,101588.03
2023-04-16T05:18:16.330Z,101593.34
2023-04-16T05:20:43.228Z,101596.06
2023-04-16T05:23:10.152Z,101595.22
2023-04-16T05:25:37.100Z,101596.13
2023-04-16T05:28:04.062Z,101596.19
2023-04-16T05:30:31.026Z,101592.75
2023-04-16T05:32:58.034Z,101593.63
2023-04-16T05:35:24.966Z,101593.69
2023-04-16T05:37:51.854Z,101610.22
2023-04-16T05:40:18.833Z,101609.34
2023-04-16T05:42:45.744Z,101602.41
2023-04-16T05:45:12.653Z,101603.31
2023-04-16T05:47:39.611Z,101612.09
2023-04-16T05:50:07.157Z,101612.03
2023-04-16T05:52:34.049Z,101624.97
2023-04-16T05:55:01.897Z,101631.06
2023-04-16T05:57:29.796Z,101629.41
2023-04-16T05:59:56.678Z,101623.28
2023-04-16T06:02:23.736Z,101626.00
2023-04-16T06:04:50.789Z,101631.28
2023-04-16T06:07:17.708Z,101628.69
2023-04-16T06:09:45.663Z,101632.25
2023-04-16T06:12:12.663Z,101629.66
2023-04-16T06:14:39.543Z,101627.94
2023-04-16T06:17:06.458Z,101633.16
2023-04-16T06:19:33.339Z,101645.38
2023-04-16T06:22:00.305Z,101642.81
2023-04-16T06:24:27.186Z,101642.00
2023-04-16T06:26:54.657Z,101642.88
2023-04-16T06:29:24.142Z,101644.59
2023-04-16T06:31:57.620Z,101646.38
2023-04-16T06:34:24.582Z,101652.47
2023-04-16T06:36:52.357Z,101646.44
2023-04-16T06:39:21.744Z,101655.09
2023-04-16T06:41:49.339Z,101654.25
2023-04-16T06:44:16.238Z,101674.28
2023-04-16T06:46:43.252Z,101664.63
2023-04-16T06:49:10.339Z,101656.81
2023-04-16T06:51:37.988Z,101671.63
2023-04-16T06:54:04.967Z,101674.16
2023-04-16T06:56:32.322Z,101670.69
2023-04-16T06:59:00.939Z,101679.38
2023-04-16T07:01:28.555Z,101669.94
2023-04-16T07:03:55.874Z,101666.59
2023-04-16T07:06:22.902Z,101670.19
2023-04-16T07:08:49.846Z,101664.22
2023-04-16T07:11:17.153Z,101672.13
2023-04-16T07:13:44.108Z,101662.59
2023-04-16T07:16:11.023Z,101667.03
2023-04-16T07:18:38.027Z,101672.38
2023-04-16T07:21:05.034Z,101672.50
2023-04-16T07:23:31.949Z,101673.41
2023-04-16T07:25:58.833Z,101673.47
2023-04-16T07:28:26.023Z,101675.28
2023-04-16T07:30:52.933Z,101680.56
2023-04-16T07:33:19.831Z,101683.19
2023-04-16T07:35:47.311Z,101678.91
2023-04-16T07:38:14.845Z,101686.84
2023-04-16T07:40:41.717Z,101684.28
2023-04-16T07:43:09.035Z,101687.03
2023-04-16T07:45:36.001Z,101682.72
2023-04-16T07:48:02.971Z,101684.47
2023-04-16T07:50:29.880Z,101691.34
2023-04-16T07:52:56.778Z,101693.22
2023-04-16T07:55:23.743Z,101695.84
2023-04-16T07:57:50.713Z,101700.22
2023-04-16T08:00:17.826Z,101697.53
2023-04-16T08:02:45.012Z,101701.88
2023-04-16T08:05:12.856Z,101701.94
2023-04-16T08:07:39.756Z,101705.53
2023-04-16T08:10:07.436Z,101705.69
2023-04-16T08:12:34.951Z,101701.50
2023-04-16T08:15:01.825Z,101712.19
2023-04-16T08:17:29.492Z,101724.56
2023-04-16T08:19:56.450Z,101708.88
2023-04-16T08:22:23.355Z,101724.72
2023-04-16T08:24:50.251Z,101732.56
2023-04-16T08:27:19.420Z,101735.25
2023-04-16T08:29:47.575Z,101743.19
2023-04-16T08:32:14.469Z,101737.06
2023-04-16T08:34:42.209Z,101743.19
2023-04-16T08:37:09.600Z,101735.28
2023-04-16T08:39:36.682Z,101740.56
2023-04-16T08:42:06.352Z,101753.66
2023-04-16T08:44:37.902Z,101743.34
2023-04-16T08:47:09.529Z,101753.97
2023-04-16T08:49:43.538Z,101746.22
2023-04-16T08:52:19.309Z,101757.53
2023-04-16T08:55:07.174Z,101755.72
2023-04-16T08:57:51.086Z,101758.31
2023-04-16T09:00:19.205Z,101759.28
2023-04-16T09:02:46.538Z,101753.19
2023-04-16T09:05:20.691Z,101750.72
2023-04-16T09:07:48.668Z,101764.72
2023-04-16T09:10:16.552Z,101765.66
2023-04-16T09:12:45.237Z,101770.94
2023-04-16T09:15:13.912Z,101776.16
2023-04-16T09:17:40.914Z,101768.34
2023-04-16T09:20:09.373Z,101771.91
2023-04-16T09:22:37.054Z,101775.56
2023-04-16T09:25:04.276Z,101768.69
2023-04-16T09:27:31.989Z,101765.28
2023-04-16T09:29:59.285Z,101763.63
2023-04-16T09:32:28.427Z,101765.31
2023-04-16T09:35:02.379Z,101765.28
2023-04-16T09:37:30.906Z,101771.38
2023-04-16T09:40:03.931Z,101767.84
2023-04-16T09:42:36.885Z,101769.50
2023-04-16T09:45:06.026Z,101779.06
2023-04-16T09:47:42.930Z,101779.09
2023-04-16T09:50:17.775Z,101780.97
2023-04-16T09:52:51.573Z,101768.00
2023-04-16T09:55:23.978Z,101774.19
2023-04-16T09:58:02.196Z,101781.25
2023-04-16T10:00:31.347Z,101776.91
2023-04-16T10:03:07.986Z,101776.00
2023-04-16T10:05:35.290Z,101778.69
2023-04-16T10:08:02.454Z,101768.25
2023-04-16T10:10:30.205Z,101782.22
2023-04-16T10:12:57.965Z,101780.50
2023-04-16T10:15:25.316Z,101782.28
2023-04-16T10:17:53.888Z,101781.47
2023-04-16T10:20:21.039Z,101779.72
2023-04-16T10:22:48.219Z,101788.50
2023-04-16T10:25:15.533Z,101785.94
2023-04-16T10:27:42.477Z,101793.81
2023-04-16T10:30:11.265Z,101796.38
2023-04-16T10:32:38.962Z,101784.97
2023-04-16T10:35:06.860Z,101791.97
2023-04-16T10:37:34.574Z,101798.13
2023-04-16T10:40:01.716Z,101806.09
2023-04-16T10:42:28.683Z,101803.56
2023-04-16T10:44:59.525Z,101813.19
2023-04-16T10:47:26.719Z,101805.38
2023-04-16T10:49:53.686Z,101803.63
2023-04-16T10:52:22.440Z,101795.84
2023-04-16T10:54:49.990Z,101810.72
2023-04-16T10:57:19.714Z,101809.00
2023-04-16T10:59:48.717Z,101811.63
2023-04-16T11:02:19.622Z,101810.78
2023-04-16T11:04:49.215Z,101820.41
2023-04-16T11:07:22.622Z,101809.06
2023-04-16T11:10:06.762Z,101809.06
2023-04-16T11:12:42.122Z,101807.28
2023-04-16T11:15:11.930Z,101808.16
2023-04-16T11:17:47.879Z,101816.03
2023-04-16T11:20:24.262Z,101810.75
2023-04-16T11:22:56.850Z,101820.34
2023-04-16T11:25:26.144Z,101815.94
2023-04-16T11:27:53.651Z,101812.44
2023-04-16T11:30:30.620Z,101827.22
2023-04-16T11:32:57.561Z,101821.09
2023-04-16T11:35:24.562Z,101822.84
2023-04-16T11:37:57.155Z,101834.19
2023-04-16T11:40:27.066Z,101842.06
2023-04-16T11:42:53.988Z,101842.06
2023-04-16T11:45:21.104Z,101836.81
2023-04-16T11:47:55.144Z,101842.94
2023-04-16T11:50:27.784Z,101843.75
2023-04-16T11:53:05.444Z,101850.72
2023-04-16T11:55:32.386Z,101849.78
2023-04-16T11:58:12.934Z,101856.75
2023-04-16T12:00:41.594Z,101850.75
2023-04-16T12:03:08.745Z,101847.25
2023-04-16T12:05:39.345Z,101852.47
2023-04-16T12:08:09.028Z,101866.38
2023-04-16T12:10:52.472Z,101864.63
2023-04-16T12:13:19.728Z,101869.94
2023-04-16T12:15:52.073Z,101865.59
2023-04-16T12:18:26.742Z,101869.00
2023-04-16T12:20:54.067Z,101880.31
2023-04-16T12:23:30.011Z,101877.63
2023-04-16T12:26:02.551Z,101875.91
2023-04-16T12:28:38.414Z,101863.72
2023-04-16T12:31:06.322Z,101873.38
2023-04-16T12:33:33.410Z,101873.44
2023-04-16T12:36:01.556Z,101876.09
2023-04-16T12:38:29.070Z,101872.59
2023-04-16T12:40:57.558Z,101875.19
2023-04-16T12:43:25.117Z,101883.91
2023-04-16T12:45:52.148Z,101879.47
2023-04-16T12:48:19.071Z,101875.91
2023-04-16T12:50:46.144Z,101881.13
2023-04-16T12:53:13.044Z,101880.22
2023-04-16T12:55:39.951Z,101885.50
2023-04-16T12:58:06.875Z,101873.31
2023-04-16T13:00:33.785Z,101889.03
2023-04-16T13:03:00.966Z,101875.06
2023-04-16T13:05:28.017Z,101878.53
2023-04-16T13:07:55.031Z,101886.41
2023-04-16T13:10:23.450Z,101882.91
2023-04-16T13:12:50.345Z,101877.66
2023-04-16T13:15:17.277Z,101877.63
2023-04-16T13:17:44.247Z,101889.91
2023-04-16T13:20:11.344Z,101889.09
2023-04-16T13:22:39.274Z,101887.44
2023-04-16T13:25:07.005Z,101893.41
2023-04-16T13:27:33.891Z,101904.72
2023-04-16T13:30:00.915Z,101894.13
2023-04-16T13:32:27.888Z,101904.53
2023-04-16T13:34:55.021Z,101893.13
2023-04-16T13:37:21.904Z,101898.38
2023-04-16T13:39:48.796Z,101887.06
2023-04-16T13:42:15.697Z,101896.59
2023-04-16T13:44:42.706Z,101895.66
2023-04-16T13:47:09.646Z,101902.63
2023-04-16T13:49:36.663Z,101898.28
2023-04-16T13:52:03.960Z,101906.19
2023-04-16T13:54:30.934Z,101909.72
2023-04-16T13:56:57.830Z,101900.09
2023-04-16T13:59:24.754Z,101901.91
2023-04-16T14:01:51.724Z,101904.59
2023-04-16T14:04:18.801Z,101898.50
2023-04-16T14:06:45.952Z,101902.06
2023-04-16T14:09:13.016Z,101895.09
2023-04-16T14:11:40.262Z,101892.56
2023-04-16T14:14:07.157Z,101893.50
2023-04-16T14:16:35.813Z,101906.63
2023-04-16T14:19:02.747Z,101908.22
2023-04-16T14:21:31.247Z,101908.97
2023-04-16T14:23:58.160Z,101910.72
2023-04-16T14:26:25.106Z,101928.22
2023-04-16T14:28:52.098Z,101921.19
2023-04-16T14:31:20.004Z,101908.88
2023-04-16T14:33:47.160Z,101914.13
2023-04-16T14:36:14.265Z,101908.91
2023-04-16T14:38:43.173Z,101924.66
2023-04-16T14:41:11.948Z,101926.38
2023-04-16T14:43:41.194Z,101922.88
2023-04-16T14:46:08.281Z,101923.69
2023-04-16T14:48:35.222Z,101919.38
2023-04-16T14:51:02.510Z,101927.31
2023-04-16T14:53:29.432Z,101916.94
2023-04-16T14:55:58.938Z,101923.09
2023-04-16T14:58:26.541Z,101929.97
2023-04-16T15:00:53.624Z,101922.97
2023-04-16T15:03:21.037Z,101923.94
2023-04-16T15:05:54.770Z,101934.50
2023-04-16T15:08:22.777Z,101931.84
2023-04-16T15:10:50.441Z,101926.59
2023-04-16T15:13:17.714Z,101939.69
2023-04-16T15:15:44.848Z,101938.75
2023-04-16T15:18:11.747Z,101952.66
2023-04-16T15:20:38.693Z,101958.56
2023-04-16T15:23:05.858Z,101951.38
2023-04-16T15:25:32.790Z,101946.94
2023-04-16T15:27:59.654Z,101951.31
2023-04-16T15:30:26.558Z,101949.56
2023-04-16T15:32:55.018Z,101950.25
2023-04-16T15:35:22.131Z,101971.84
2023-04-16T15:37:49.004Z,101961.28
2023-04-16T15:40:18.713Z,101967.22
2023-04-16T15:42:45.651Z,101974.13
2023-04-16T15:45:12.551Z,101968.78
2023-04-16T15:47:41.696Z,101974.06
2023-04-16T15:50:09.075Z,101978.44
2023-04-16T15:52:36.417Z,101972.31
2023-04-16T15:55:04.385Z,101971.47
2023-04-16T15:57:31.496Z,101981.13
2023-04-16T16:02:30.522Z,101988.03
2023-04-16T16:04:57.615Z,101986.28
2023-04-16T16:07:25.186Z,101987.25
2023-04-16T16:09:53.086Z,101994.25
2023-04-16T16:12:20.029Z,101991.63
2023-04-16T16:14:47.740Z,101992.47
2023-04-16T16:17:14.852Z,101995.78
2023-04-16T16:19:41.750Z,101988.72
2023-04-16T16:22:10.126Z,101985.25
2023-04-16T16:24:37.038Z,101997.47
2023-04-16T16:27:04.104Z,101995.81
2023-04-16T16:29:31.274Z,101994.03
2023-04-16T16:31:58.280Z,101994.94
2023-04-16T16:34:26.172Z,101998.44
2023-04-16T16:36:53.076Z,101996.66
2023-04-16T16:39:24.274Z,101995.75
2023-04-16T16:41:54.175Z,102002.59
2023-04-16T16:44:21.721Z,102010.41
2023-04-16T16:46:48.870Z,102003.28
2023-04-16T16:49:16.870Z,102011.28
2023-04-16T16:51:49.986Z,102011.31
2023-04-16T16:54:16.907Z,102007.00
2023-04-16T16:56:43.858Z,102007.06
2023-04-16T16:59:10.928Z,102011.50
2023-04-16T17:01:38.039Z,102017.44
2023-04-16T17:04:05.343Z,102024.25
2023-04-16T17:06:33.215Z,102021.56
2023-04-16T17:09:00.932Z,102027.72
2023-04-16T17:11:29.246Z,102030.31
2023-04-16T17:13:56.170Z,102030.19
2023-04-16T17:16:23.912Z,102036.13
2023-04-16T17:18:50.848Z,102044.72
2023-04-16T17:21:17.761Z,102046.38
2023-04-16T17:23:44.812Z,102048.75
2023-04-16T17:26:11.725Z,102042.47
2023-04-16T17:28:38.650Z,102040.56
2023-04-16T17:31:08.322Z,102044.63
2023-04-16T17:33:35.488Z,102048.88
2023-04-16T17:36:02.438Z,102049.66
2023-04-16T17:38:29.367Z,102054.75
2023-04-16T17:40:57.043Z,102055.59
2023-04-16T17:43:24.206Z,102060.81
2023-04-16T17:45:51.179Z,102064.19
2023-04-16T17:48:18.168Z,102067.56
2023-04-16T17:50:45.062Z,102068.19
2023-04-16T17:53:12.229Z,102071.53
2023-04-16T17:55:39.135Z,102072.34
2023-04-16T17:58:06.196Z,102072.28
2023-04-16T18:00:33.399Z,102081.00
2023-04-16T18:03:00.472Z,102081.03
2023-04-16T18:05:27.645Z,102077.50
2023-04-16T18:07:55.610Z,102081.91
2023-04-16T18:10:22.543Z,102085.50
2023-04-16T18:12:49.512Z,102087.25
2023-04-16T18:15:16.639Z,102090.59
2023-04-16T18:17:43.601Z,102095.72
2023-04-16T18:20:12.543Z,102100.00
2023-04-16T18:22:39.585Z,102103.31
2023-04-16T18:25:07.097Z,102105.75
2023-04-16T18:27:34.380Z,102114.38
2023-04-16T18:30:01.359Z,102115.94
2023-04-16T18:32:31.029Z,102111.16
2023-04-16T18:34:58.264Z,102128.53
2023-04-16T18:37:25.196Z,102130.34
2023-04-16T18:39:52.115Z,102128.59
2023-04-16T18:42:19.005Z,102132.03
2023-04-16T18:44:52.791Z,102136.44
2023-04-16T18:47:20.027Z,102133.81
2023-04-16T18:49:46.931Z,102138.97
2023-04-16T18:52:13.805Z,102134.63
2023-04-16T18:54:43.604Z,102134.69
2023-04-16T18:57:10.579Z,102141.59
2023-04-16T18:59:37.491Z,102150.25
2023-04-16T19:02:04.492Z,102150.25
2023-04-16T19:04:31.524Z,102142.31
2023-04-16T19:06:58.484Z,102157.09
2023-04-16T19:09:26.423Z,102157.09
2023-04-16T19:11:53.295Z,102158.78
2023-04-16T19:14:20.606Z,102159.63
2023-04-16T19:16:47.584Z,102163.97
2023-04-16T19:19:14.491Z,102161.19
2023-04-16T19:21:41.366Z,102163.59
2023-04-16T19:24:08.309Z,102168.56
2023-04-16T19:26:35.229Z,102175.25
2023-04-16T19:29:02.166Z,102175.03
2023-04-16T19:31:29.639Z,102170.47
2023-04-16T19:33:56.617Z,102179.81
2023-04-16T19:36:23.544Z,102178.75
2023-04-16T19:38:50.548Z,102177.72
2023-04-16T19:41:17.602Z,102175.84
2023-04-16T19:43:44.605Z,102179.22
2023-04-16T19:46:11.580Z,102182.56
2023-04-16T19:48:38.681Z,102185.03
2023-04-16T19:51:05.747Z,102185.78
2023-04-16T19:53:34.126Z,102173.47
2023-04-16T19:56:01.065Z,102190.25
2023-04-16T19:58:28.020Z,102179.09
2023-04-16T20:00:55.719Z,102186.91
2023-04-16T20:03:22.734Z,102182.28
2023-04-16T20:05:50.067Z,102184.72
2023-04-16T20:08:16.978Z,102179.22
2023-04-16T20:10:43.903Z,102178.50
2023-04-16T20:13:12.088Z,102188.91
2023-04-16T20:15:39.037Z,102173.50
2023-04-16T20:18:08.507Z,102180.69
2023-04-16T20:20:37.812Z,102180.75
2023-04-16T20:23:04.948Z,102180.91
2023-04-16T20:25:31.850Z,102186.97
2023-04-16T20:27:58.736Z,102181.72
2023-04-16T20:30:29.387Z,102180.69
2023-04-16T20:32:56.761Z,102181.31
2023-04-16T20:35:23.704Z,102185.38
2023-04-16T20:37:50.569Z,102192.84
2023-04-16T20:40:17.529Z,102191.63
2023-04-16T20:42:46.300Z,102192.22
2023-04-16T20:45:13.494Z,102192.22
2023-04-16T20:47:40.491Z,102190.34
2023-04-16T20:50:08.177Z,102190.34
2023-04-16T20:52:35.065Z,102197.28
2023-04-16T20:55:01.943Z,102192.06
2023-04-16T20:57:29.756Z,102208.47
2023-04-16T20:59:56.955Z,102201.50
2023-04-16T21:02:24.369Z,102202.22
2023-04-16T21:04:51.734Z,102205.56
2023-04-16T21:07:18.751Z,102210.75
2023-04-16T21:09:45.627Z,102209.09
2023-04-16T21:12:12.477Z,102209.16
2023-04-16T21:14:39.347Z,102211.84
2023-04-16T21:17:06.229Z,102217.94
2023-04-16T21:19:33.107Z,102216.09
2023-04-16T21:21:59.993Z,102218.66
2023-04-16T21:24:26.860Z,102212.53
2023-04-16T21:26:53.717Z,102223.75
2023-04-16T21:29:20.669Z,102225.38
2023-04-16T21:31:47.752Z,102218.47
2023-04-16T21:34:14.715Z,102218.41
2023-04-16T21:36:41.572Z,102218.38
2023-04-16T21:39:08.580Z,102220.84
2023-04-16T21:41:35.461Z,102223.38
2023-04-16T21:44:02.426Z,102224.16
2023-04-16T21:46:29.596Z,102224.16
2023-04-16T21:48:56.524Z,102224.09
2023-04-16T21:51:29.192Z,102220.41
2023-04-16T21:53:57.027Z,102225.72
2023-04-16T21:56:24.940Z,102226.56
2023-04-16T21:58:51.792Z,102218.75
2023-04-16T22:01:18.713Z,102223.13
2023-04-16T22:03:50.526Z,102220.59
2023-04-16T22:06:18.303Z,102215.38
2023-04-16T22:08:45.212Z,102222.34
2023-04-16T22:11:12.174Z,102217.84
2023-04-16T22:13:41.955Z,102215.31
2023-04-16T22:16:10.958Z,102224.09
2023-04-16T22:18:38.737Z,102225.88
2023-04-16T22:21:05.692Z,102228.47
2023-04-16T22:23:32.595Z,102225.09
2023-04-16T22:25:59.453Z,102231.41
2023-04-16T22:28:26.377Z,102232.41
2023-04-16T22:30:53.291Z,102230.94
2023-04-16T22:33:20.287Z,102225.94
2023-04-16T22:35:47.172Z,102226.19
2023-04-16T22:38:14.195Z,102220.31
2023-04-16T22:40:41.091Z,102223.19
2023-04-16T22:43:08.003Z,102231.97
2023-04-16T22:45:35.689Z,102227.69
2023-04-16T22:48:02.826Z,102226.06
2023-04-16T22:50:31.299Z,102224.47
2023-04-16T22:52:58.563Z,102228.88
2023-04-16T22:55:25.608Z,102222.88
2023-04-16T22:57:52.503Z,102222.03
2023-04-16T23:00:19.463Z,102222.09
2023-04-16T23:02:46.502Z,102220.38
2023-04-16T23:05:13.486Z,102223.03
2023-04-16T23:07:40.481Z,102218.69
2023-04-16T23:10:08.666Z,102223.94
2023-04-16T23:12:37.448Z,102213.34
2023-04-16T23:15:06.620Z,102219.56
2023-04-16T23:17:35.024Z,102217.81
2023-04-16T23:20:02.974Z,102222.19
2023-04-16T23:22:29.877Z,102223.06
2023-04-16T23:24:56.854Z,102227.44
2023-04-16T23:27:23.807Z,102219.50
2023-04-16T23:29:50.696Z,102225.72
2023-04-16T23:32:17.656Z,102218.69
2023-04-16T23:34:44.570Z,102230.72
2023-04-16T23:37:11.615Z,102234.09
2023-04-16T23:39:38.548Z,102225.13
2023-04-16T23:42:05.468Z,102223.38
2023-04-16T23:44:32.396Z,102227.66
2023-04-16T23:46:59.551Z,102220.59
2023-04-16T23:49:26.516Z,102221.50
2023-04-16T23:51:53.451Z,102231.88
2023-04-16T23:54:21.382Z,102228.44
2023-04-16T23:56:48.485Z,102221.50
2023-04-16T23:59:16.682Z,102225.03
